Ratho, United Kingdom
Current Conditions -  °F | °C
As of 3:50 PM on Friday 24 Oct 2014 (Local Time) from EGPH Reporting Station
Broken Clouds Broken Clouds  
Wind Chill: 11°   Ceiling: 4300
Heat Index: 11°   Visibility: 6mi
Dew Point:   Wind: 14mph
Humidity: 71%   Direction: 230°SW
Pressure: 29.71"   Gusts: NA
Location:  55.92°N, 3.38°W
Report Text: EGPH 241450Z 23012KT 9999 SCT024 BKN043 11/06 Q1006
Loading
Personal Weather Stations






























Interactive Weather Map
Tropical Storm Tracking
New forecast layout! Learn more

10-Day Weather Forecast

Advertisements
Track Severe Weather on mobile